Time;durP1;ratioP1;P1;durP2;ratioP2;P2;SDS_P1;SDS_P2;PMS_P1;PMS_P2;Temp;Humidity;BMP_temperature;BMP_pressure;BME280_temperature;BME280_humidity;BME280_pressure;Samples;Min_cycle;Max_cycle;Signal;HPM_P1;HPM_P2
2022/10/25 00:01:54;;;;;;;2.38;1.40;;;;;;;10.90;99.99;96516.78;4974686;28;20057;-77
2022/10/25 00:04:21;;;;;;;3.22;1.40;;;;;;;10.81;99.83;96510.53;4974478;28;20134;-77
2022/10/25 00:06:47;;;;;;;1.88;1.10;;;;;;;10.82;99.76;96518.38;4974639;28;20058;-77
2022/10/25 00:09:14;;;;;;;3.00;1.38;;;;;;;10.79;100.00;96513.53;4974246;28;20047;-75
2022/10/25 00:11:42;;;;;;;5.13;1.58;;;;;;;10.87;99.97;96510.06;4974831;28;20130;-77
2022/10/25 00:14:14;;;;;;;3.53;1.55;;;;;;;10.80;99.80;96503.44;4973729;28;20051;-77
2022/10/25 00:16:41;;;;;;;3.88;1.60;;;;;;;10.93;99.79;96502.53;4974623;28;20137;-77
2022/10/25 00:19:07;;;;;;;1.95;1.30;;;;;;;10.92;99.79;96496.28;4977856;28;20046;-76
2022/10/25 00:21:34;;;;;;;2.58;1.63;;;;;;;11.05;98.77;96494.56;4979114;28;20067;-76
2022/10/25 00:24:00;;;;;;;2.63;1.40;;;;;;;10.99;98.68;96506.72;4976522;28;20058;-77
2022/10/25 00:26:27;;;;;;;4.60;1.63;;;;;;;11.07;98.28;96496.97;4975438;28;20133;-77
2022/10/25 00:28:54;;;;;;;3.03;1.40;;;;;;;11.14;97.99;96509.00;4974403;28;20050;-76
2022/10/25 00:31:23;;;;;;;2.53;1.50;;;;;;;11.18;97.88;96507.25;4973932;28;20058;-77
2022/10/25 00:33:50;;;;;;;8.32;1.70;;;;;;;11.14;97.83;96509.00;4974862;28;20071;-77
2022/10/25 00:36:18;;;;;;;3.13;1.52;;;;;;;11.11;98.06;96508.81;4974503;28;20130;-76
2022/10/25 00:38:45;;;;;;;4.30;1.60;;;;;;;11.04;98.29;96503.84;4974774;28;20388;-77
2022/10/25 00:41:13;;;;;;;3.45;1.48;;;;;;;11.08;98.30;96509.47;4973875;28;20138;-77
2022/10/25 00:43:42;;;;;;;4.15;1.38;;;;;;;10.99;98.11;96517.63;4974786;28;20422;-77
2022/10/25 00:46:13;;;;;;;4.18;1.33;;;;;;;11.04;98.22;96509.31;4973628;28;20418;-77
2022/10/25 00:48:46;;;;;;;3.63;1.67;;;;;;;11.06;97.73;96507.06;4973783;28;20529;-77
2022/10/25 00:51:13;;;;;;;2.08;1.40;;;;;;;11.12;97.68;96511.25;4973004;28;20046;-76
2022/10/25 00:53:40;;;;;;;3.03;1.50;;;;;;;11.16;97.80;96504.03;4974257;28;20534;-77
2022/10/25 00:56:13;;;;;;;2.17;1.40;;;;;;;11.19;97.52;96506.13;4973828;28;20563;-77
2022/10/25 00:58:43;;;;;;;2.83;1.45;;;;;;;11.20;97.29;96506.94;4973960;28;20047;-76
2022/10/25 01:01:13;;;;;;;2.70;1.48;;;;;;;11.18;97.40;96499.06;4973884;28;20051;-76
2022/10/25 01:03:42;;;;;;;3.05;1.45;;;;;;;11.11;97.21;96496.00;4974373;28;20043;-77
2022/10/25 01:06:17;;;;;;;2.78;1.55;;;;;;;11.12;96.86;96500.34;4973402;28;20523;-77
2022/10/25 01:08:46;;;;;;;4.13;1.55;;;;;;;11.08;96.92;96504.03;4973748;28;20521;-76
2022/10/25 01:11:12;;;;;;;4.55;1.35;;;;;;;11.10;96.89;96508.03;4973487;28;20129;-77
2022/10/25 01:13:39;;;;;;;2.33;1.25;;;;;;;11.11;97.05;96508.81;4970877;28;20122;-76
2022/10/25 01:16:18;;;;;;;4.97;1.60;;;;;;;11.04;97.10;96514.75;4973399;28;20499;-77
2022/10/25 01:18:56;;;;;;;3.17;1.30;;;;;;;11.04;97.06;96509.31;4974329;28;20063;-77
2022/10/25 01:21:45;;;;;;;3.25;1.30;;;;;;;11.04;97.20;96503.06;4973462;28;20049;-76
2022/10/25 01:24:37;;;;;;;7.80;2.17;;;;;;;10.99;97.15;96506.72;4972582;28;20054;-76
2022/10/25 01:27:36;;;;;;;2.90;1.30;;;;;;;10.88;97.22;96499.97;4972611;28;20053;-77
2022/10/25 01:30:09;;;;;;;3.28;1.58;;;;;;;10.81;96.75;96505.88;4972656;28;20139;-76
2022/10/25 01:32:43;;;;;;;2.72;1.55;;;;;;;10.69;96.73;96503.72;4973961;28;20106;-77
2022/10/25 01:35:18;;;;;;;2.83;1.60;;;;;;;10.67;96.52;96497.81;4973705;28;20053;-77
2022/10/25 01:37:58;;;;;;;2.45;1.58;;;;;;;10.54;96.55;96493.25;4973831;28;20057;-77
2022/10/25 01:40:33;;;;;;;2.33;1.52;;;;;;;10.56;96.32;96490.25;4973492;28;20491;-77
2022/10/25 01:43:07;;;;;;;3.05;1.80;;;;;;;10.55;96.28;96491.38;4973205;28;20069;-77
2022/10/25 01:45:41;;;;;;;5.82;1.83;;;;;;;10.55;95.40;96494.88;4973393;28;20043;-77
2022/10/25 01:48:14;;;;;;;2.78;1.55;;;;;;;10.49;95.40;96496.13;4973207;28;20050;-77
2022/10/25 01:50:43;;;;;;;2.28;1.50;;;;;;;10.45;95.57;96498.69;4973646;28;20129;-76
2022/10/25 01:53:11;;;;;;;2.30;1.35;;;;;;;10.41;96.13;96492.25;4973290;28;20498;-76
2022/10/25 01:55:44;;;;;;;2.03;1.48;;;;;;;10.37;96.64;96482.31;4973178;28;20051;-76
2022/10/25 01:58:23;;;;;;;3.03;1.50;;;;;;;10.34;96.65;96478.31;4973332;28;20045;-76
2022/10/25 02:00:58;;;;;;;2.97;1.35;;;;;;;10.28;96.92;96478.72;4972260;28;20134;-77
2022/10/25 02:03:32;;;;;;;3.05;1.63;;;;;;;10.22;97.19;96494.34;4973457;28;20543;-77
2022/10/25 02:06:15;;;;;;;3.70;1.40;;;;;;;10.21;97.18;96492.75;4975852;28;20081;-77
2022/10/25 02:08:47;;;;;;;3.42;1.50;;;;;;;10.24;97.48;96497.63;4977096;28;20047;-77
2022/10/25 02:11:22;;;;;;;5.07;1.88;;;;;;;10.18;97.54;96496.91;4976470;28;20042;-77
2022/10/25 02:14:01;;;;;;;2.80;1.67;;;;;;;10.20;97.85;96491.97;4977403;28;20130;-77
2022/10/25 02:16:32;;;;;;;4.55;1.88;;;;;;;10.16;97.76;96490.97;4976817;28;20043;-79
2022/10/25 02:19:03;;;;;;;3.90;1.58;;;;;;;10.10;97.62;96489.50;4976874;28;20049;-77
2022/10/25 02:21:32;;;;;;;4.97;1.98;;;;;;;10.12;97.45;96489.97;4976907;28;20042;-77
2022/10/25 02:24:04;;;;;;;4.00;1.65;;;;;;;10.13;97.64;96491.59;4977275;28;20066;-77
2022/10/25 02:26:31;;;;;;;3.08;1.50;;;;;;;10.10;97.71;96489.50;4977167;28;20138;-77
2022/10/25 02:28:57;;;;;;;2.55;1.63;;;;;;;10.09;97.83;96493.34;4977029;28;20656;-76
2022/10/25 02:31:26;;;;;;;2.72;1.63;;;;;;;10.13;97.95;96490.81;4976627;28;20045;-76
2022/10/25 02:33:53;;;;;;;6.22;1.70;;;;;;;10.12;98.09;96491.91;4977170;28;20046;-79
2022/10/25 02:36:23;;;;;;;3.97;1.40;;;;;;;10.11;98.00;96495.75;4976017;28;20057;-76
2022/10/25 02:38:52;;;;;;;2.30;1.30;;;;;;;10.12;98.03;96495.41;4976700;28;20532;-77
2022/10/25 02:41:20;;;;;;;2.28;1.38;;;;;;;10.15;97.89;96492.09;4975681;28;20718;-76
2022/10/25 02:43:47;;;;;;;1.58;1.00;;;;;;;10.18;97.90;96493.41;4976000;28;20055;-77
2022/10/25 02:46:16;;;;;;;5.20;1.50;;;;;;;10.17;98.13;96498.00;4979089;28;20050;-76
2022/10/25 02:48:43;;;;;;;1.95;1.30;;;;;;;10.22;97.99;96494.34;4979190;28;20043;-75
2022/10/25 02:51:10;;;;;;;3.95;1.20;;;;;;;10.23;97.96;96495.97;4978107;28;20053;-77
2022/10/25 02:53:39;;;;;;;4.57;1.60;;;;;;;10.23;98.05;96500.59;4979379;28;20150;-76
2022/10/25 02:56:08;;;;;;;1.95;1.10;;;;;;;10.20;98.13;96497.41;4979222;28;20134;-76
2022/10/25 02:58:37;;;;;;;4.07;1.33;;;;;;;10.22;97.97;96501.72;4980453;28;20558;-76
2022/10/25 03:01:05;;;;;;;2.55;1.25;;;;;;;10.26;97.89;96509.00;4979010;28;20047;-76
2022/10/25 03:03:32;;;;;;;1.88;1.20;;;;;;;10.32;97.83;96512.38;4979530;28;20558;-76
2022/10/25 03:05:59;;;;;;;2.28;1.08;;;;;;;10.36;97.78;96516.09;4979154;28;20423;-76
2022/10/25 03:08:26;;;;;;;1.77;1.00;;;;;;;10.32;97.88;96515.09;4977231;28;20129;-76
2022/10/25 03:10:55;;;;;;;2.03;1.10;;;;;;;10.35;98.38;96522.66;4976620;28;20043;-77
2022/10/25 03:13:23;;;;;;;2.83;1.40;;;;;;;10.35;98.26;96519.94;4976341;28;20078;-77
2022/10/25 03:15:49;;;;;;;3.13;1.10;;;;;;;10.27;97.71;96517.94;4976704;28;20264;-77
2022/10/25 03:18:16;;;;;;;3.95;0.90;;;;;;;10.39;97.97;96510.03;4975806;28;20039;-76
2022/10/25 03:20:44;;;;;;;2.55;0.80;;;;;;;10.43;97.14;96508.25;4976939;28;20051;-77
2022/10/25 03:23:11;;;;;;;2.13;0.80;;;;;;;10.56;96.25;96515.53;4976558;28;20077;-77
2022/10/25 03:25:38;;;;;;;1.42;0.88;;;;;;;10.70;95.79;96510.81;4977947;28;20047;-78
2022/10/25 03:28:06;;;;;;;2.67;0.90;;;;;;;10.63;94.73;96510.44;4977888;28;20122;-78
2022/10/25 03:30:33;;;;;;;1.40;0.90;;;;;;;10.71;94.48;96500.72;4976244;28;20042;-77
2022/10/25 03:33:00;;;;;;;2.00;0.70;;;;;;;10.86;94.04;96502.22;4976389;28;20053;-77
2022/10/25 03:35:27;;;;;;;1.20;0.70;;;;;;;10.96;93.89;96507.34;4975615;28;20039;-78
2022/10/25 03:37:54;;;;;;;3.97;1.25;;;;;;;10.93;93.74;96516.97;4976809;28;20050;-76
2022/10/25 03:40:21;;;;;;;5.47;0.82;;;;;;;10.97;93.34;96511.69;4975848;28;20045;-77
2022/10/25 03:42:47;;;;;;;1.13;0.90;;;;;;;11.04;93.23;96520.19;4974967;28;20051;-77
2022/10/25 03:45:18;;;;;;;1.08;0.65;;;;;;;11.05;93.17;96516.34;4973355;28;20047;-77
2022/10/25 03:47:45;;;;;;;1.33;0.73;;;;;;;10.98;93.15;96522.28;4974840;28;20051;-77
2022/10/25 03:50:12;;;;;;;1.98;1.00;;;;;;;10.99;92.90;96533.97;4975121;28;20049;-76
2022/10/25 03:52:39;;;;;;;2.72;0.73;;;;;;;10.76;93.07;96535.19;4975114;28;20073;-77
2022/10/25 03:55:06;;;;;;;1.67;0.75;;;;;;;10.86;92.93;96529.47;4974682;28;20623;-77
2022/10/25 03:57:33;;;;;;;2.42;0.82;;;;;;;10.97;92.71;96528.03;4975228;28;20416;-76
2022/10/25 03:59:59;;;;;;;0.90;0.70;;;;;;;11.00;92.51;96527.41;4974416;28;20058;-77
2022/10/25 04:02:28;;;;;;;4.05;1.20;;;;;;;11.01;92.23;96531.72;4974433;28;20463;-77
2022/10/25 04:04:54;;;;;;;1.83;0.95;;;;;;;10.84;92.61;96529.75;4974972;28;20049;-77
2022/10/25 04:07:21;;;;;;;1.33;0.90;;;;;;;10.76;93.26;96532.47;4974529;28;20110;-77
2022/10/25 04:09:47;;;;;;;2.47;0.90;;;;;;;10.83;93.20;96530.06;4975232;28;20046;-77
2022/10/25 04:12:14;;;;;;;2.10;0.93;;;;;;;10.94;92.96;96534.13;4974233;28;20069;-77
2022/10/25 04:14:41;;;;;;;2.15;0.90;;;;;;;10.92;92.90;96528.19;4974928;28;20134;-77
2022/10/25 04:17:07;;;;;;;2.88;1.00;;;;;;;10.89;93.65;96529.59;4974204;28;20129;-77
2022/10/25 04:19:35;;;;;;;1.17;0.80;;;;;;;10.99;93.50;96536.69;4974863;28;20049;-77
2022/10/25 04:22:02;;;;;;;7.78;1.42;;;;;;;11.00;93.16;96535.56;4973268;28;20061;-77
2022/10/25 04:24:28;;;;;;;2.50;0.80;;;;;;;10.96;93.33;96542.75;4956671;28;20790;-77
2022/10/25 04:26:55;;;;;;;1.48;0.85;;;;;;;10.76;94.41;96540.63;4973909;28;20038;-77
2022/10/25 04:29:22;;;;;;;2.67;1.00;;;;;;;10.75;94.68;96542.53;4973917;28;20132;-77
2022/10/25 04:31:49;;;;;;;2.90;0.80;;;;;;;10.91;94.01;96542.91;4974244;28;20506;-77
2022/10/25 04:34:15;;;;;;;3.00;1.15;;;;;;;10.95;93.70;96549.34;4974139;28;20069;-76
2022/10/25 04:36:43;;;;;;;1.48;0.90;;;;;;;10.95;93.60;96539.25;4974864;28;20055;-77
2022/10/25 04:39:10;;;;;;;3.85;1.80;;;;;;;10.96;93.48;96540.03;4973426;28;20053;-77
2022/10/25 04:41:36;;;;;;;4.53;2.40;;;;;;;10.95;93.03;96538.44;4973383;28;20053;-77
2022/10/25 04:44:03;;;;;;;2.17;1.27;;;;;;;11.05;92.51;96543.59;4972707;28;20475;-78
2022/10/25 04:46:30;;;;;;;8.75;1.15;;;;;;;10.94;93.02;96548.53;4974550;28;20053;-77
2022/10/25 04:48:56;;;;;;;1.75;0.90;;;;;;;10.85;93.75;96549.63;4974120;28;20491;-78
2022/10/25 04:51:23;;;;;;;1.90;0.90;;;;;;;10.94;93.60;96534.13;4973058;28;20497;-78
2022/10/25 04:53:53;;;;;;;4.13;1.08;;;;;;;11.00;93.67;96535.56;4972965;28;20137;-78
2022/10/25 04:56:19;;;;;;;3.20;0.90;;;;;;;10.91;93.37;96526.56;4973989;28;20051;-78
2022/10/25 04:58:46;;;;;;;1.27;0.82;;;;;;;11.07;93.23;96525.03;4975789;28;20053;-77
2022/10/25 05:01:15;;;;;;;2.40;0.80;;;;;;;11.03;92.94;96525.97;4973608;28;20047;-76
2022/10/25 05:03:42;;;;;;;2.03;0.98;;;;;;;11.03;93.08;96526.78;4976763;28;20096;-76
2022/10/25 05:06:09;;;;;;;3.28;0.90;;;;;;;11.09;92.86;96522.78;4975544;28;20146;-76
2022/10/25 05:08:36;;;;;;;2.92;0.65;;;;;;;11.01;92.92;96520.81;4975926;28;20117;-76
2022/10/25 05:11:04;;;;;;;3.85;0.93;;;;;;;11.08;93.30;96526.63;4975772;28;20130;-77
2022/10/25 05:13:32;;;;;;;1.75;0.93;;;;;;;11.04;92.66;96525.66;4975894;28;20133;-77
2022/10/25 05:15:59;;;;;;;1.45;0.90;;;;;;;11.10;92.66;96538.00;4976358;28;20047;-77
2022/10/25 05:18:26;;;;;;;3.60;1.08;;;;;;;11.11;92.69;96536.88;4973217;28;20059;-77
2022/10/25 05:20:53;;;;;;;1.38;0.82;;;;;;;10.98;93.47;96540.53;4973558;28;20424;-78
2022/10/25 05:23:20;;;;;;;1.10;0.82;;;;;;;10.92;93.70;96547.25;4971942;28;20051;-76
2022/10/25 05:25:46;;;;;;;1.52;0.80;;;;;;;10.83;94.60;96549.13;4973193;28;20043;-78
2022/10/25 05:28:14;;;;;;;1.17;0.80;;;;;;;10.93;94.15;96548.88;4973357;28;20546;-77
2022/10/25 05:30:41;;;;;;;3.63;0.90;;;;;;;10.94;94.44;96553.19;4975041;28;20057;-77
2022/10/25 05:33:08;;;;;;;2.88;1.08;;;;;;;10.87;94.65;96553.66;4974605;28;20047;-78
2022/10/25 05:35:34;;;;;;;3.08;0.98;;;;;;;10.90;94.65;96557.66;4974710;28;20052;-78
2022/10/25 05:38:01;;;;;;;2.97;0.90;;;;;;;10.80;95.35;96557.94;4973827;28;20073;-77
2022/10/25 05:40:28;;;;;;;2.22;1.40;;;;;;;10.80;95.59;96563.38;4972876;28;20034;-78
2022/10/25 05:42:57;;;;;;;4.47;0.90;;;;;;;10.81;96.02;96565.00;4973424;28;20054;-78
2022/10/25 05:45:24;;;;;;;2.35;0.80;;;;;;;10.77;96.02;96564.03;4972641;28;20125;-77
2022/10/25 05:47:51;;;;;;;4.22;0.95;;;;;;;10.80;96.33;96568.81;4974873;28;20050;-78
2022/10/25 05:50:18;;;;;;;1.80;0.75;;;;;;;10.78;96.30;96571.88;4974666;28;20042;-78
2022/10/25 05:52:44;;;;;;;3.20;1.05;;;;;;;10.94;95.95;96570.34;4974586;28;20051;-78
2022/10/25 05:55:11;;;;;;;2.42;1.05;;;;;;;10.80;95.77;96563.38;4974335;28;20130;-77
2022/10/25 05:57:37;;;;;;;2.17;1.13;;;;;;;10.85;95.72;96572.22;4973802;28;20052;-77
2022/10/25 06:00:05;;;;;;;1.50;0.80;;;;;;;10.94;95.50;96575.78;4972474;28;20073;-76
2022/10/25 06:02:34;;;;;;;2.63;0.88;;;;;;;10.85;95.58;96571.41;4973318;28;20521;-78
2022/10/25 06:05:00;;;;;;;4.43;1.00;;;;;;;10.81;95.60;96575.91;4973459;28;20639;-78
2022/10/25 06:07:27;;;;;;;2.28;1.23;;;;;;;10.80;95.81;96575.06;4973451;28;20047;-78
2022/10/25 06:09:54;;;;;;;1.40;0.75;;;;;;;10.85;95.98;96576.88;4974211;28;20054;-77
2022/10/25 06:12:20;;;;;;;4.45;1.10;;;;;;;10.91;95.63;96581.03;4973509;28;20050;-77
2022/10/25 06:14:47;;;;;;;1.38;1.00;;;;;;;10.95;95.21;96573.84;4973877;28;20047;-77
2022/10/25 06:17:13;;;;;;;2.67;0.90;;;;;;;11.00;95.09;96579.16;4973631;28;20054;-77
2022/10/25 06:19:41;;;;;;;2.60;1.17;;;;;;;10.94;95.31;96585.88;4973327;28;20134;-78
2022/10/25 06:22:08;;;;;;;2.65;1.00;;;;;;;10.88;95.53;96590.66;4973079;28;20133;-77
2022/10/25 06:24:34;;;;;;;2.60;1.08;;;;;;;10.84;95.71;96591.59;4972973;28;20050;-78
2022/10/25 06:27:01;;;;;;;2.03;1.10;;;;;;;10.95;95.42;96590.22;4973553;28;20154;-77
2022/10/25 06:29:27;;;;;;;2.95;0.80;;;;;;;11.09;95.37;96603.75;4973290;28;20047;-77
2022/10/25 06:31:54;;;;;;;3.42;1.00;;;;;;;11.18;94.46;96608.09;4973626;28;20066;-78
2022/10/25 06:34:20;;;;;;;2.25;0.93;;;;;;;11.16;94.49;96609.53;4972863;28;20062;-77
2022/10/25 06:36:48;;;;;;;2.50;1.25;;;;;;;11.10;94.51;96617.03;4972730;28;20051;-77
2022/10/25 06:39:15;;;;;;;2.83;1.15;;;;;;;11.23;94.34;96618.06;4972488;28;20134;-77
2022/10/25 06:41:41;;;;;;;5.53;0.90;;;;;;;11.07;94.11;96612.22;4972873;28;20053;-77
2022/10/25 06:44:08;;;;;;;4.15;0.88;;;;;;;11.23;94.19;96623.53;4971750;28;20051;-77
2022/10/25 06:46:37;;;;;;;4.78;1.00;;;;;;;11.07;94.18;96622.34;4972116;28;20071;-77
2022/10/25 06:49:04;;;;;;;3.33;0.90;;;;;;;10.95;94.65;96620.19;4972315;28;20521;-78
2022/10/25 06:51:33;;;;;;;5.00;1.15;;;;;;;11.07;94.54;96628.59;4974630;28;20050;-77
2022/10/25 06:54:08;;;;;;;2.63;1.17;;;;;;;11.08;94.52;96635.63;4976567;28;20066;-76
2022/10/25 06:56:35;;;;;;;2.38;1.20;;;;;;;11.18;94.00;96629.13;4977236;28;20458;-76
2022/10/25 06:59:02;;;;;;;2.42;0.90;;;;;;;11.10;93.94;96633.38;4976530;28;20051;-76
2022/10/25 07:01:29;;;;;;;2.97;0.82;;;;;;;11.28;93.77;96633.47;4976534;28;20130;-77
2022/10/25 07:03:55;;;;;;;3.35;1.10;;;;;;;11.45;93.13;96638.97;4976685;28;20057;-77
2022/10/25 07:06:24;;;;;;;3.42;1.20;;;;;;;11.20;92.99;96641.28;4976513;28;20099;-77
2022/10/25 07:08:54;;;;;;;2.22;1.05;;;;;;;11.41;92.73;96638.81;4976975;28;20102;-77
2022/10/25 07:11:23;;;;;;;3.65;1.23;;;;;;;11.45;92.76;96647.97;4975907;28;20058;-77
2022/10/25 07:13:50;;;;;;;2.15;0.85;;;;;;;11.53;92.50;96645.56;4976347;28;20051;-77
2022/10/25 07:16:18;;;;;;;3.05;1.10;;;;;;;11.44;92.09;96645.56;4975662;28;20126;-78
2022/10/25 07:18:46;;;;;;;1.98;0.90;;;;;;;11.37;93.07;96653.38;4976105;28;20466;-77
2022/10/25 07:21:15;;;;;;;2.28;1.10;;;;;;;11.48;92.77;96643.78;4975475;28;20047;-77
2022/10/25 07:23:42;;;;;;;5.65;1.23;;;;;;;11.64;92.19;96644.16;4975892;28;20055;-77
2022/10/25 07:26:11;;;;;;;2.40;1.10;;;;;;;11.82;92.22;96647.75;4975681;28;20073;-77
2022/10/25 07:28:39;;;;;;;7.28;1.40;;;;;;;11.98;91.50;96651.63;4976349;28;20106;-77
2022/10/25 07:31:06;;;;;;;4.40;1.17;;;;;;;11.88;90.85;96646.47;4975860;28;20053;-77
2022/10/25 07:33:33;;;;;;;2.38;1.23;;;;;;;11.88;90.85;96646.47;4975836;28;20055;-77
2022/10/25 07:36:00;;;;;;;4.63;1.23;;;;;;;11.92;90.60;96650.19;4976040;28;20053;-76
2022/10/25 07:38:26;;;;;;;2.80;1.30;;;;;;;11.98;90.75;96651.63;4975499;28;20049;-77
2022/10/25 07:40:57;;;;;;;2.63;1.10;;;;;;;12.06;90.59;96653.59;4975927;28;20414;-77
2022/10/25 07:43:24;;;;;;;3.65;1.10;;;;;;;12.28;90.10;96650.69;4974697;28;20043;-77
2022/10/25 07:45:52;;;;;;;2.92;1.60;;;;;;;12.52;89.64;96657.56;4975965;28;20050;-78
2022/10/25 07:48:18;;;;;;;3.55;1.20;;;;;;;12.54;88.25;96663.53;4975194;28;20061;-77
2022/10/25 07:50:45;;;;;;;3.15;1.25;;;;;;;12.80;87.14;96661.56;4975768;28;20563;-77
2022/10/25 07:53:12;;;;;;;3.42;1.10;;;;;;;13.16;86.40;96663.09;4975379;28;20047;-77
2022/10/25 07:55:38;;;;;;;3.58;1.02;;;;;;;13.27;84.12;96667.09;4976396;28;20055;-77
2022/10/25 07:58:06;;;;;;;4.32;1.40;;;;;;;13.36;84.33;96671.72;4974693;28;20049;-77
2022/10/25 08:00:35;;;;;;;5.22;1.10;;;;;;;13.48;83.13;96669.91;4975254;28;20043;-78
2022/10/25 08:03:03;;;;;;;6.57;1.77;;;;;;;13.53;82.78;96671.66;4975919;28;20050;-77
2022/10/25 08:05:30;;;;;;;8.07;1.40;;;;;;;13.58;82.76;96674.22;4976374;28;20050;-77
2022/10/25 08:07:57;;;;;;;7.72;1.65;;;;;;;13.66;82.02;96675.28;4975101;28;20063;-77
2022/10/25 08:10:23;;;;;;;8.60;2.08;;;;;;;13.71;82.43;96677.84;4974862;28;20468;-77
2022/10/25 08:12:51;;;;;;;4.13;1.30;;;;;;;13.67;82.14;96677.69;4974953;28;20058;-77
2022/10/25 08:15:18;;;;;;;7.65;1.95;;;;;;;13.57;82.27;96667.09;4974692;28;20482;-78
2022/10/25 08:17:45;;;;;;;3.75;1.50;;;;;;;13.57;82.52;96665.19;4975066;28;20051;-76
2022/10/25 08:20:13;;;;;;;4.07;1.90;;;;;;;13.54;84.04;96654.09;4974488;28;20042;-77
2022/10/25 08:22:39;;;;;;;3.28;2.17;;;;;;;13.53;83.85;96660.72;4974989;28;20102;-78
2022/10/25 08:25:07;;;;;;;5.55;1.70;;;;;;;13.36;83.66;96660.75;4973948;28;20515;-77
2022/10/25 08:27:33;;;;;;;4.43;1.70;;;;;;;13.47;84.27;96670.25;4974237;28;20053;-77
2022/10/25 08:30:03;;;;;;;2.20;1.17;;;;;;;13.59;84.19;96670.34;4974238;28;20053;-77
2022/10/25 08:32:30;;;;;;;4.05;1.10;;;;;;;13.76;83.53;96658.47;4973730;28;20053;-77
2022/10/25 08:34:56;;;;;;;4.47;1.50;;;;;;;13.79;83.20;96658.63;4974030;28;20447;-77
2022/10/25 08:37:24;;;;;;;2.92;1.20;;;;;;;13.87;82.36;96653.44;4973651;28;20043;-77
2022/10/25 08:39:51;;;;;;;5.95;1.70;;;;;;;13.80;82.96;96654.75;4974480;28;20053;-77
2022/10/25 08:42:25;;;;;;;2.95;1.60;;;;;;;13.84;82.02;96654.91;4973678;28;20047;-77
2022/10/25 08:44:57;;;;;;;2.50;1.33;;;;;;;13.96;82.62;96656.91;4955145;29;20051;-77
2022/10/25 08:47:28;;;;;;;1.75;0.98;;;;;;;14.02;82.61;96661.06;4954571;28;20126;-77
2022/10/25 08:50:00;;;;;;;3.88;1.50;;;;;;;14.30;83.17;96655.84;4955401;29;20496;-77
2022/10/25 08:52:33;;;;;;;3.70;1.30;;;;;;;14.56;82.35;96658.41;4954417;29;20053;-77
2022/10/25 08:55:02;;;;;;;4.22;1.40;;;;;;;14.57;81.28;96662.78;4954326;29;20051;-76
2022/10/25 08:57:32;;;;;;;3.00;1.30;;;;;;;14.69;81.12;96668.28;4954265;29;20047;-77
2022/10/25 09:00:06;;;;;;;6.82;1.67;;;;;;;14.55;80.55;96673.25;4954552;29;20057;-77
2022/10/25 09:02:39;;;;;;;5.32;1.80;;;;;;;14.67;79.91;96665.09;4954853;29;20398;-77
2022/10/25 09:05:13;;;;;;;6.53;1.60;;;;;;;14.77;78.56;96675.66;4954379;29;20426;-77
2022/10/25 09:08:08;;;;;;;5.93;1.48;;;;;;;15.01;77.16;96685.06;4955844;29;20051;-78
2022/10/25 09:10:54;;;;;;;3.30;1.38;;;;;;;15.25;74.50;96679.66;4955082;29;20057;-76
2022/10/25 09:13:35;;;;;;;5.78;1.45;;;;;;;15.25;72.29;96685.16;4965018;28;20139;-80
2022/10/25 09:16:12;;;;;;;9.80;1.77;;;;;;;15.14;72.19;96689.47;4975067;28;20154;-77
2022/10/25 09:18:46;;;;;;;8.63;1.95;;;;;;;15.08;72.46;96685.31;4975308;28;20062;-78
2022/10/25 09:21:18;;;;;;;6.47;1.55;;;;;;;15.18;71.75;96686.81;4973596;28;20043;-78
2022/10/25 09:23:58;;;;;;;7.15;2.03;;;;;;;15.54;72.90;96686.09;4973719;28;20063;-77
2022/10/25 09:26:34;;;;;;;7.05;1.60;;;;;;;15.48;71.55;96688.25;4972892;28;20406;-77
2022/10/25 09:29:04;;;;;;;5.40;1.60;;;;;;;15.63;72.58;96686.81;4974792;28;20481;-77
2022/10/25 09:31:36;;;;;;;4.25;1.60;;;;;;;15.85;73.35;96674.56;4974119;28;20098;-77
2022/10/25 09:34:05;;;;;;;3.05;1.35;;;;;;;16.07;73.21;96681.53;4973103;28;20051;-76
2022/10/25 09:36:37;;;;;;;6.55;1.55;;;;;;;16.08;72.20;96677.66;4974151;28;20047;-77
2022/10/25 09:39:15;;;;;;;2.43;1.10;;;;;;;15.86;69.51;96671.47;4974082;28;20637;-77
2022/10/25 09:41:46;;;;;;;5.18;1.52;;;;;;;16.08;70.95;96677.66;4974318;28;20286;-76
2022/10/25 09:44:18;;;;;;;5.45;1.50;;;;;;;16.27;70.48;96683.34;4973009;28;20461;-78
2022/10/25 09:46:48;;;;;;;3.03;1.30;;;;;;;16.49;70.61;96675.72;4974223;28;20050;-77
2022/10/25 09:49:22;;;;;;;5.88;1.88;;;;;;;16.42;66.32;96670.81;4973262;28;20282;-78
2022/10/25 09:51:56;;;;;;;9.48;1.95;;;;;;;16.16;66.87;96677.50;4975979;28;20051;-77
2022/10/25 09:54:28;;;;;;;9.95;1.67;;;;;;;16.18;67.10;96678.00;4974524;28;20121;-78
2022/10/25 09:56:55;;;;;;;10.43;1.60;;;;;;;16.34;67.17;96675.31;4975227;28;20133;-77
2022/10/25 09:59:22;;;;;;;10.25;1.73;;;;;;;16.43;68.25;96675.97;4973710;28;20075;-78
2022/10/25 10:01:48;;;;;;;12.82;1.77;;;;;;;16.47;67.41;96672.53;4974864;28;20050;-77
2022/10/25 10:04:25;;;;;;;12.15;1.75;;;;;;;16.46;67.67;96670.94;4973820;28;20111;-77
2022/10/25 10:06:56;;;;;;;6.40;1.52;;;;;;;16.49;68.07;96670.22;4974096;28;20050;-77
2022/10/25 10:09:28;;;;;;;10.68;1.80;;;;;;;16.53;65.99;96676.63;4973660;28;20051;-78
2022/10/25 10:11:57;;;;;;;7.45;1.42;;;;;;;16.62;64.52;96674.53;4974177;28;20051;-76
2022/10/25 10:14:31;;;;;;;10.65;1.77;;;;;;;16.77;67.52;96671.09;4972867;28;20113;-78
2022/10/25 10:17:00;;;;;;;6.80;2.08;;;;;;;17.04;67.64;96674.16;4973840;28;20078;-78
2022/10/25 10:19:28;;;;;;;6.50;1.38;;;;;;;17.04;65.22;96674.16;4973675;28;20039;-77
2022/10/25 10:21:57;;;;;;;5.70;1.40;;;;;;;17.08;64.62;96675.06;4973986;28;20047;-77
2022/10/25 10:24:28;;;;;;;7.10;1.60;;;;;;;17.29;63.98;96672.88;4972960;28;20137;-77
2022/10/25 10:26:57;;;;;;;4.18;1.00;;;;;;;17.32;63.74;96671.34;4976378;28;20046;-78
2022/10/25 10:29:26;;;;;;;13.68;2.45;;;;;;;17.20;63.45;96667.53;4976340;28;20414;-75
2022/10/25 10:31:55;;;;;;;4.80;1.20;;;;;;;17.18;64.57;96671.81;4977695;28;20049;-76
2022/10/25 10:34:29;;;;;;;9.63;1.42;;;;;;;17.26;62.28;96670.81;4976442;28;20051;-76
2022/10/25 10:37:11;;;;;;;8.02;1.55;;;;;;;16.90;62.01;96664.34;4977636;28;20081;-78
2022/10/25 10:39:48;;;;;;;13.15;2.13;;;;;;;17.13;64.03;96667.34;4947521;28;20076;-78
2022/10/25 10:42:16;;;;;;;11.82;1.90;;;;;;;17.09;63.51;96649.16;4980290;28;20051;-77
2022/10/25 10:45:01;;;;;;;9.32;1.63;;;;;;;17.26;63.08;96659.00;4979745;28;20051;-77
2022/10/25 10:47:31;;;;;;;12.80;1.92;;;;;;;17.27;63.12;96655.09;4976177;28;20043;-77
2022/10/25 10:49:58;;;;;;;10.32;1.48;;;;;;;17.30;63.43;96660.72;4976731;28;20053;-77
2022/10/25 10:52:29;;;;;;;13.48;1.67;;;;;;;17.25;61.35;96657.41;4959367;28;20047;-77
2022/10/25 10:54:59;;;;;;;6.00;1.35;;;;;;;17.22;60.30;96658.91;4977523;28;20051;-77
2022/10/25 10:57:31;;;;;;;7.13;1.13;;;;;;;17.34;60.52;96661.59;4976475;28;20047;-78
2022/10/25 10:59:59;;;;;;;10.73;1.83;;;;;;;17.31;63.54;96654.03;4976946;28;20070;-77
2022/10/25 11:02:37;;;;;;;7.50;1.50;;;;;;;17.45;63.29;96657.16;4976426;28;20494;-77
2022/10/25 11:05:21;;;;;;;10.55;1.70;;;;;;;17.56;60.80;96651.91;4959022;28;20062;-77
2022/10/25 11:07:52;;;;;;;;;;;;;;;17.70;61.14;96654.22;4977332;28;20047;-78
2022/10/25 11:10:26;;;;;;;10.07;1.70;;;;;;;17.74;61.03;96646.88;4976677;28;20004;-77
2022/10/25 11:13:11;;;;;;;7.13;1.42;;;;;;;17.86;61.67;96651.50;4978446;28;20051;-77
2022/10/25 11:16:16;;;;;;;12.25;1.58;;;;;;;17.96;60.02;96646.22;4979390;28;20130;-77
2022/10/25 11:18:51;;;;;;;11.20;1.73;;;;;;;18.03;61.85;96647.53;4978246;28;20101;-78
2022/10/25 11:21:33;;;;;;;7.78;1.42;;;;;;;18.15;59.89;96639.16;4979157;28;20130;-77
2022/10/25 11:24:08;;;;;;;12.48;1.85;;;;;;;18.59;57.04;96642.47;4980870;28;20129;-77
2022/10/25 11:26:49;;;;;;;9.32;1.58;;;;;;;18.31;57.89;96644.59;4979297;28;20049;-77
2022/10/25 11:29:26;;;;;;;7.75;1.10;;;;;;;18.02;55.82;96640.44;4978826;28;20047;-78
2022/10/25 11:32:01;;;;;;;8.23;1.42;;;;;;;17.40;57.61;96643.66;4979119;28;20047;-79
2022/10/25 11:34:39;;;;;;;18.80;2.70;;;;;;;17.39;58.56;96646.78;4976682;28;20062;-78
2022/10/25 11:37:12;;;;;;;13.95;1.85;;;;;;;18.02;60.80;96634.94;4975793;28;20053;-78
2022/10/25 11:39:50;;;;;;;10.70;1.77;;;;;;;17.93;58.65;96632.38;4978418;28;20053;-79
2022/10/25 11:42:31;;;;;;;12.95;2.25;;;;;;;18.20;57.41;96628.63;4978942;28;20047;-79
2022/10/25 11:45:18;;;;;;;9.50;1.75;;;;;;;17.92;59.47;96628.81;4960614;29;20138;-77
2022/10/25 11:48:00;;;;;;;9.48;1.73;;;;;;;17.93;60.81;96624.88;4960509;28;20119;-77